Detall de PIREP

Printer-friendly versionPDF version

[2012/05/07 09:57:00]
Flight IATA:CT1005
Pilot Number:011
Company ICAO:CAT
Aircraft Type:F28/A
PAX:85
Departing Airport: EFVA
Destination Airport: EETU
Alternate Airport:EETN
Online: VATSIM
Route:DCT GELSO UP854 KOLEV DCT UM
Flight Level:F290
No Slew and time accel
No pause
Crash detect
Detect pilot in Cockpit between each 30 and 45 minutes
09:57 Zero fuel Weight: 60157 Lbs, Fuel Weight: 10698 Lbs
09:57 VATSIM:EFVA 070920Z AUTO 25010G20KT 220V290 CAVOK 10/M06 Q1012
09:57 VATSIM:EETU 070950Z 30004KT 250V350 9999 OVC025 09/03 Q1015
09:59 Parking Brakes off
10:12 Take-off
10:12 Take off Weight: 70317 Lbs
10:12 Wind: 245º @ 010 Knots Heading: 166º
10:12 POS N63º 02´ 53´´ E021º 45´ 48´´
10:12 Gear Up: 162 Knots
10:12 Flaps:2 at 162 Knots
10:13 Flaps:1 at 223 Knots
10:13 Flaps:0 at 230 Knots
10:26 TOC
10:26 Fuel Weight: 8265 Lb
10:27 Wind:275º@031 Knots Heading: 155º Ground Speed: 382 Knots Altitude 29009 ft
10:42 Wind:309º@020 Knots Heading: 144º Ground Speed: 464 Knots Altitude 29025 ft
10:42 TOD
10:42 Fuel Weight: 6910 Lb
10:57 Wind:301º@010 Knots Heading: 155º Ground Speed: 289 Knots Altitude 7696 ft
11:04 Flaps:1 at 218 Knots
11:04 Flaps:2 at 206 Knots
11:05 Flaps:3 at 181 Knots
11:05 Gear Down: 178 Knots
11:06 Flaps:4 at 160 Knots
11:07 Flaps:5 at 152 Knots
11:12 Wind:254º@004 Knots Heading: 085º Ground Speed: 145 Knots Altitude 2004 ft
11:18 TouchDown:Rate -73 ft/min Speed: 119 Knots
11:18 Flaps:0 at 45 Knots
11:18 VATSIM:EETU 071050Z 26004KT 200V320 9999 BKN032 10/02 Q1015
11:18 Land
11:18 Wind:254º@004 Knots
11:18 Heading: 268º
11:18 Flight Duration: 01:06
11:18 Landing Weight: 64667 Lbs
11:18 POS N58º 18´ 26´´ E026º 41´ 16´´
11:20 Parking brakes on
11:20 Block to Block Duration: 01:21
11:20 Final Fuel: 4376 Lbls
11:20 Spent Fuel: 6322 Lbls
11:20 Flight Length: 154 NM
11:20 TOD Land Length: 56 NM

Exportar CSV

Powered by Drupal - Modified by Danger4k